sensor_id;sensor_type;location;lat;lon;timestamp;temperature;humidity
5429;DHT22;2737;52.386;9.980;2023-12-14T00:00:43;4.40;99.90
5429;DHT22;2737;52.386;9.980;2023-12-14T00:03:10;4.30;99.90
5429;DHT22;2737;52.386;9.980;2023-12-14T00:05:37;4.40;99.90
5429;DHT22;2737;52.386;9.980;2023-12-14T00:08:04;4.40;99.90
5429;DHT22;2737;52.386;9.980;2023-12-14T00:10:33;4.40;99.90
5429;DHT22;2737;52.386;9.980;2023-12-14T00:13:00;4.50;99.90
5429;DHT22;2737;52.386;9.980;2023-12-14T00:15:27;4.50;99.90
5429;DHT22;2737;52.386;9.980;2023-12-14T00:17:54;4.30;99.90
5429;DHT22;2737;52.386;9.980;2023-12-14T00:20:21;4.30;99.90
5429;DHT22;2737;52.386;9.980;2023-12-14T00:22:48;4.40;99.90
5429;DHT22;2737;52.386;9.980;2023-12-14T00:25:15;4.20;99.90
5429;DHT22;2737;52.386;9.980;2023-12-14T00:27:43;4.20;99.90
5429;DHT22;2737;52.386;9.980;2023-12-14T00:30:11;4.20;99.90
5429;DHT22;2737;52.386;9.980;2023-12-14T00:32:38;4.20;99.90
5429;DHT22;2737;52.386;9.980;2023-12-14T00:35:05;4.30;99.90
5429;DHT22;2737;52.386;9.980;2023-12-14T00:37:32;4.20;99.90
5429;DHT22;2737;52.386;9.980;2023-12-14T00:39:59;4.10;99.90
5429;DHT22;2737;52.386;9.980;2023-12-14T00:42:26;4.20;99.90
5429;DHT22;2737;52.386;9.980;2023-12-14T00:44:54;4.20;99.90
5429;DHT22;2737;52.386;9.980;2023-12-14T00:47:21;4.10;99.90
5429;DHT22;2737;52.386;9.980;2023-12-14T00:49:48;4.10;99.90
5429;DHT22;2737;52.386;9.980;2023-12-14T00:52:15;4.10;99.90
5429;DHT22;2737;52.386;9.980;2023-12-14T00:54:42;4.10;99.90
5429;DHT22;2737;52.386;9.980;2023-12-14T00:57:09;4.10;99.90
5429;DHT22;2737;52.386;9.980;2023-12-14T00:59:36;4.00;99.90
5429;DHT22;2737;52.386;9.980;2023-12-14T01:02:05;4.00;99.90
5429;DHT22;2737;52.386;9.980;2023-12-14T01:04:32;4.00;99.90
5429;DHT22;2737;52.386;9.980;2023-12-14T01:06:59;4.10;99.90
5429;DHT22;2737;52.386;9.980;2023-12-14T01:09:26;4.10;99.90
5429;DHT22;2737;52.386;9.980;2023-12-14T01:11:53;4.10;99.90
5429;DHT22;2737;52.386;9.980;2023-12-14T01:14:20;4.10;99.90
5429;DHT22;2737;52.386;9.980;2023-12-14T01:16:47;4.00;99.90
5429;DHT22;2737;52.386;9.980;2023-12-14T01:19:16;3.90;99.90
5429;DHT22;2737;52.386;9.980;2023-12-14T01:21:43;4.00;99.90
5429;DHT22;2737;52.386;9.980;2023-12-14T01:24:10;4.00;99.90
5429;DHT22;2737;52.386;9.980;2023-12-14T01:26:37;4.00;99.90
5429;DHT22;2737;52.386;9.980;2023-12-14T01:29:04;3.90;99.90
5429;DHT22;2737;52.386;9.980;2023-12-14T01:31:31;4.00;99.90
5429;DHT22;2737;52.386;9.980;2023-12-14T01:33:58;3.90;99.90
5429;DHT22;2737;52.386;9.980;2023-12-14T01:36:26;3.70;99.90
5429;DHT22;2737;52.386;9.980;2023-12-14T01:38:53;3.80;99.90
5429;DHT22;2737;52.386;9.980;2023-12-14T01:41:20;3.80;99.90
5429;DHT22;2737;52.386;9.980;2023-12-14T01:43:47;3.80;99.90
5429;DHT22;2737;52.386;9.980;2023-12-14T01:46:14;3.80;99.90
5429;DHT22;2737;52.386;9.980;2023-12-14T01:48:42;3.70;99.90
5429;DHT22;2737;52.386;9.980;2023-12-14T01:51:09;3.70;99.90
5429;DHT22;2737;52.386;9.980;2023-12-14T01:53:37;3.70;99.90
5429;DHT22;2737;52.386;9.980;2023-12-14T01:56:05;3.60;99.90
5429;DHT22;2737;52.386;9.980;2023-12-14T01:58:32;3.60;99.90
5429;DHT22;2737;52.386;9.980;2023-12-14T02:01:05;3.60;99.90
5429;DHT22;2737;52.386;9.980;2023-12-14T02:03:33;3.50;99.90
5429;DHT22;2737;52.386;9.980;2023-12-14T02:06:00;3.50;99.90
5429;DHT22;2737;52.386;9.980;2023-12-14T02:08:28;3.50;99.90
5429;DHT22;2737;52.386;9.980;2023-12-14T02:10:56;3.50;99.90
5429;DHT22;2737;52.386;9.980;2023-12-14T02:13:23;3.50;99.90
5429;DHT22;2737;52.386;9.980;2023-12-14T02:15:51;3.50;99.90
5429;DHT22;2737;52.386;9.980;2023-12-14T02:18:19;3.50;99.90
5429;DHT22;2737;52.386;9.980;2023-12-14T02:20:46;3.60;99.90
5429;DHT22;2737;52.386;9.980;2023-12-14T02:23:14;3.60;99.90
5429;DHT22;2737;52.386;9.980;2023-12-14T02:25:41;3.60;99.90
5429;DHT22;2737;52.386;9.980;2023-12-14T02:28:08;3.60;99.90
5429;DHT22;2737;52.386;9.980;2023-12-14T02:30:35;3.70;99.90
5429;DHT22;2737;52.386;9.980;2023-12-14T02:33:02;3.70;99.90
5429;DHT22;2737;52.386;9.980;2023-12-14T02:35:29;3.70;99.90
5429;DHT22;2737;52.386;9.980;2023-12-14T02:37:57;3.70;99.90
5429;DHT22;2737;52.386;9.980;2023-12-14T02:40:25;3.80;99.90
5429;DHT22;2737;52.386;9.980;2023-12-14T02:42:52;3.80;99.90
5429;DHT22;2737;52.386;9.980;2023-12-14T02:45:19;3.70;99.90
5429;DHT22;2737;52.386;9.980;2023-12-14T02:47:46;3.70;99.90
5429;DHT22;2737;52.386;9.980;2023-12-14T02:50:15;3.50;99.90
5429;DHT22;2737;52.386;9.980;2023-12-14T02:52:42;3.50;99.90
5429;DHT22;2737;52.386;9.980;2023-12-14T02:55:09;3.60;99.90
5429;DHT22;2737;52.386;9.980;2023-12-14T02:57:38;3.50;99.90
5429;DHT22;2737;52.386;9.980;2023-12-14T03:00:06;3.50;99.90
5429;DHT22;2737;52.386;9.980;2023-12-14T03:02:33;3.60;99.90
5429;DHT22;2737;52.386;9.980;2023-12-14T03:05:01;3.50;99.90
5429;DHT22;2737;52.386;9.980;2023-12-14T03:07:28;3.60;99.90
5429;DHT22;2737;52.386;9.980;2023-12-14T03:09:55;3.60;99.90
5429;DHT22;2737;52.386;9.980;2023-12-14T03:12:22;3.60;99.90
5429;DHT22;2737;52.386;9.980;2023-12-14T03:14:50;3.70;99.90
5429;DHT22;2737;52.386;9.980;2023-12-14T03:17:17;3.70;99.90
5429;DHT22;2737;52.386;9.980;2023-12-14T03:19:44;3.70;99.90
5429;DHT22;2737;52.386;9.980;2023-12-14T03:22:11;3.70;99.90
5429;DHT22;2737;52.386;9.980;2023-12-14T03:24:38;3.80;99.90
5429;DHT22;2737;52.386;9.980;2023-12-14T03:27:05;3.80;99.90
5429;DHT22;2737;52.386;9.980;2023-12-14T03:29:32;3.70;99.90
5429;DHT22;2737;52.386;9.980;2023-12-14T03:32:01;3.70;99.90
5429;DHT22;2737;52.386;9.980;2023-12-14T03:34:28;3.60;99.90
5429;DHT22;2737;52.386;9.980;2023-12-14T03:36:55;3.50;99.90
5429;DHT22;2737;52.386;9.980;2023-12-14T03:39:22;3.60;99.90
5429;DHT22;2737;52.386;9.980;2023-12-14T03:41:49;3.50;99.90
5429;DHT22;2737;52.386;9.980;2023-12-14T03:44:16;3.40;99.90
5429;DHT22;2737;52.386;9.980;2023-12-14T03:46:43;3.50;99.90
5429;DHT22;2737;52.386;9.980;2023-12-14T03:49:12;3.50;99.90
5429;DHT22;2737;52.386;9.980;2023-12-14T03:51:39;3.50;99.90
5429;DHT22;2737;52.386;9.980;2023-12-14T03:54:06;3.50;99.90
5429;DHT22;2737;52.386;9.980;2023-12-14T03:56:33;3.50;99.90
5429;DHT22;2737;52.386;9.980;2023-12-14T03:59:00;3.50;99.90
5429;DHT22;2737;52.386;9.980;2023-12-14T04:01:27;3.50;99.90
5429;DHT22;2737;52.386;9.980;2023-12-14T04:03:54;3.50;99.90
5429;DHT22;2737;52.386;9.980;2023-12-14T04:06:22;3.50;99.90
5429;DHT22;2737;52.386;9.980;2023-12-14T04:08:49;3.50;99.90
5429;DHT22;2737;52.386;9.980;2023-12-14T04:11:16;3.50;99.90
5429;DHT22;2737;52.386;9.980;2023-12-14T04:13:43;3.50;99.90
5429;DHT22;2737;52.386;9.980;2023-12-14T04:16:10;3.60;99.90
5429;DHT22;2737;52.386;9.980;2023-12-14T04:18:37;3.50;99.90
5429;DHT22;2737;52.386;9.980;2023-12-14T04:21:05;3.50;99.90
5429;DHT22;2737;52.386;9.980;2023-12-14T04:23:33;3.40;99.90
5429;DHT22;2737;52.386;9.980;2023-12-14T04:26:00;3.40;99.90
5429;DHT22;2737;52.386;9.980;2023-12-14T04:28:27;3.40;99.90
5429;DHT22;2737;52.386;9.980;2023-12-14T04:30:54;3.40;99.90
5429;DHT22;2737;52.386;9.980;2023-12-14T04:33:21;3.40;99.90
5429;DHT22;2737;52.386;9.980;2023-12-14T04:35:48;3.40;99.90
5429;DHT22;2737;52.386;9.980;2023-12-14T04:38:15;3.30;99.90
5429;DHT22;2737;52.386;9.980;2023-12-14T04:40:44;3.30;99.90
5429;DHT22;2737;52.386;9.980;2023-12-14T04:43:11;3.30;99.90
5429;DHT22;2737;52.386;9.980;2023-12-14T04:45:38;3.30;99.90
5429;DHT22;2737;52.386;9.980;2023-12-14T04:48:05;3.40;99.90
5429;DHT22;2737;52.386;9.980;2023-12-14T04:50:32;3.40;99.90
5429;DHT22;2737;52.386;9.980;2023-12-14T04:52:59;3.40;99.90
5429;DHT22;2737;52.386;9.980;2023-12-14T04:55:26;3.30;99.90
5429;DHT22;2737;52.386;9.980;2023-12-14T04:57:54;3.30;99.90
5429;DHT22;2737;52.386;9.980;2023-12-14T05:00:22;3.30;99.90
5429;DHT22;2737;52.386;9.980;2023-12-14T05:02:49;3.30;99.90
5429;DHT22;2737;52.386;9.980;2023-12-14T05:05:16;3.30;99.90
5429;DHT22;2737;52.386;9.980;2023-12-14T05:07:43;3.30;99.90
5429;DHT22;2737;52.386;9.980;2023-12-14T05:10:10;3.30;99.90
5429;DHT22;2737;52.386;9.980;2023-12-14T05:12:37;3.30;99.90
5429;DHT22;2737;52.386;9.980;2023-12-14T05:15:06;3.40;99.90
5429;DHT22;2737;52.386;9.980;2023-12-14T05:17:34;3.40;99.90
5429;DHT22;2737;52.386;9.980;2023-12-14T05:20:03;3.50;99.90
5429;DHT22;2737;52.386;9.980;2023-12-14T05:22:30;3.50;99.90
5429;DHT22;2737;52.386;9.980;2023-12-14T05:24:57;3.50;99.90
5429;DHT22;2737;52.386;9.980;2023-12-14T05:27:24;3.50;99.90
5429;DHT22;2737;52.386;9.980;2023-12-14T05:29:51;3.40;99.90
5429;DHT22;2737;52.386;9.980;2023-12-14T05:32:20;3.40;99.90
5429;DHT22;2737;52.386;9.980;2023-12-14T05:34:47;3.40;99.90
5429;DHT22;2737;52.386;9.980;2023-12-14T05:37:14;3.40;99.90
5429;DHT22;2737;52.386;9.980;2023-12-14T05:39:42;3.40;99.90
5429;DHT22;2737;52.386;9.980;2023-12-14T05:42:11;3.30;99.90
5429;DHT22;2737;52.386;9.980;2023-12-14T05:44:38;3.30;99.90
5429;DHT22;2737;52.386;9.980;2023-12-14T05:47:05;3.30;99.90
5429;DHT22;2737;52.386;9.980;2023-12-14T05:49:33;3.30;99.90
5429;DHT22;2737;52.386;9.980;2023-12-14T05:52:00;3.30;99.90
5429;DHT22;2737;52.386;9.980;2023-12-14T05:54:27;3.30;99.90
5429;DHT22;2737;52.386;9.980;2023-12-14T05:56:54;3.30;99.90
5429;DHT22;2737;52.386;9.980;2023-12-14T05:59:21;3.40;99.90
5429;DHT22;2737;52.386;9.980;2023-12-14T06:01:48;3.40;99.90
5429;DHT22;2737;52.386;9.980;2023-12-14T06:04:15;3.30;99.90
5429;DHT22;2737;52.386;9.980;2023-12-14T06:06:43;3.40;99.90
5429;DHT22;2737;52.386;9.980;2023-12-14T06:09:10;3.40;99.90
5429;DHT22;2737;52.386;9.980;2023-12-14T06:11:37;3.30;99.90
5429;DHT22;2737;52.386;9.980;2023-12-14T06:14:04;3.30;99.90
5429;DHT22;2737;52.386;9.980;2023-12-14T06:16:31;3.40;99.90
5429;DHT22;2737;52.386;9.980;2023-12-14T06:18:58;3.40;99.90
5429;DHT22;2737;52.386;9.980;2023-12-14T06:21:25;3.30;99.90
5429;DHT22;2737;52.386;9.980;2023-12-14T06:23:56;3.40;99.90
5429;DHT22;2737;52.386;9.980;2023-12-14T06:26:23;3.40;99.90
5429;DHT22;2737;52.386;9.980;2023-12-14T06:28:50;3.30;99.90
5429;DHT22;2737;52.386;9.980;2023-12-14T06:31:18;3.40;99.90
5429;DHT22;2737;52.386;9.980;2023-12-14T06:33:47;3.40;99.90
5429;DHT22;2737;52.386;9.980;2023-12-14T06:36:15;3.40;99.90
5429;DHT22;2737;52.386;9.980;2023-12-14T06:38:42;3.40;99.90
5429;DHT22;2737;52.386;9.980;2023-12-14T06:41:20;3.40;99.90
5429;DHT22;2737;52.386;9.980;2023-12-14T06:43:47;3.40;99.90
5429;DHT22;2737;52.386;9.980;2023-12-14T06:46:14;3.40;99.90
5429;DHT22;2737;52.386;9.980;2023-12-14T06:48:41;3.40;99.90
5429;DHT22;2737;52.386;9.980;2023-12-14T06:51:08;3.40;99.90
5429;DHT22;2737;52.386;9.980;2023-12-14T06:53:36;3.40;99.90
5429;DHT22;2737;52.386;9.980;2023-12-14T06:56:03;3.40;99.90
5429;DHT22;2737;52.386;9.980;2023-12-14T06:58:32;3.40;99.90
5429;DHT22;2737;52.386;9.980;2023-12-14T07:00:58;3.50;99.90
5429;DHT22;2737;52.386;9.980;2023-12-14T07:03:25;3.40;99.90
5429;DHT22;2737;52.386;9.980;2023-12-14T07:05:52;3.40;99.90
5429;DHT22;2737;52.386;9.980;2023-12-14T07:08:19;3.40;99.90
5429;DHT22;2737;52.386;9.980;2023-12-14T07:10:46;3.40;99.90
5429;DHT22;2737;52.386;9.980;2023-12-14T07:13:13;3.30;99.90
5429;DHT22;2737;52.386;9.980;2023-12-14T07:15:42;3.40;99.90
5429;DHT22;2737;52.386;9.980;2023-12-14T07:18:09;3.40;99.90
5429;DHT22;2737;52.386;9.980;2023-12-14T07:20:35;3.50;99.90
5429;DHT22;2737;52.386;9.980;2023-12-14T07:23:02;3.50;99.90
5429;DHT22;2737;52.386;9.980;2023-12-14T07:25:29;3.50;99.90
5429;DHT22;2737;52.386;9.980;2023-12-14T07:27:56;3.40;99.90
5429;DHT22;2737;52.386;9.980;2023-12-14T07:30:23;3.40;99.90
5429;DHT22;2737;52.386;9.980;2023-12-14T07:32:51;3.40;99.90
5429;DHT22;2737;52.386;9.980;2023-12-14T07:35:18;3.40;99.90
5429;DHT22;2737;52.386;9.980;2023-12-14T07:37:45;3.40;99.90
5429;DHT22;2737;52.386;9.980;2023-12-14T07:40:12;3.40;99.90
5429;DHT22;2737;52.386;9.980;2023-12-14T07:42:39;3.40;99.90
5429;DHT22;2737;52.386;9.980;2023-12-14T07:45:08;3.40;99.90
5429;DHT22;2737;52.386;9.980;2023-12-14T07:47:36;3.40;99.90
5429;DHT22;2737;52.386;9.980;2023-12-14T07:50:05;3.40;99.90
5429;DHT22;2737;52.386;9.980;2023-12-14T07:52:33;3.40;99.90
5429;DHT22;2737;52.386;9.980;2023-12-14T07:55:00;3.40;99.90
5429;DHT22;2737;52.386;9.980;2023-12-14T07:57:28;3.40;99.90
5429;DHT22;2737;52.386;9.980;2023-12-14T07:59:55;3.40;99.90
5429;DHT22;2737;52.386;9.980;2023-12-14T08:02:22;3.40;99.90
5429;DHT22;2737;52.386;9.980;2023-12-14T08:04:49;3.40;99.90
5429;DHT22;2737;52.386;9.980;2023-12-14T08:07:18;3.40;99.90
5429;DHT22;2737;52.386;9.980;2023-12-14T08:09:45;3.40;99.90
5429;DHT22;2737;52.386;9.980;2023-12-14T08:12:12;3.40;99.90
5429;DHT22;2737;52.386;9.980;2023-12-14T08:14:39;3.40;99.90
5429;DHT22;2737;52.386;9.980;2023-12-14T08:17:09;3.30;99.90
5429;DHT22;2737;52.386;9.980;2023-12-14T08:19:36;3.40;99.90
5429;DHT22;2737;52.386;9.980;2023-12-14T08:22:03;3.40;99.90
5429;DHT22;2737;52.386;9.980;2023-12-14T08:24:32;3.40;99.90
5429;DHT22;2737;52.386;9.980;2023-12-14T08:26:59;3.40;99.90
5429;DHT22;2737;52.386;9.980;2023-12-14T08:29:26;3.30;99.90
5429;DHT22;2737;52.386;9.980;2023-12-14T08:31:53;3.30;99.90
5429;DHT22;2737;52.386;9.980;2023-12-14T08:34:22;3.40;99.90
5429;DHT22;2737;52.386;9.980;2023-12-14T08:36:49;3.40;99.90
5429;DHT22;2737;52.386;9.980;2023-12-14T08:39:16;3.30;99.90
5429;DHT22;2737;52.386;9.980;2023-12-14T08:41:46;3.30;99.90
5429;DHT22;2737;52.386;9.980;2023-12-14T08:44:14;3.40;99.90
5429;DHT22;2737;52.386;9.980;2023-12-14T08:46:41;3.30;99.90
5429;DHT22;2737;52.386;9.980;2023-12-14T08:49:09;3.40;99.90
5429;DHT22;2737;52.386;9.980;2023-12-14T08:51:36;3.40;99.90
5429;DHT22;2737;52.386;9.980;2023-12-14T08:54:03;3.40;99.90
5429;DHT22;2737;52.386;9.980;2023-12-14T08:56:31;3.40;99.90
5429;DHT22;2737;52.386;9.980;2023-12-14T08:58:59;3.40;99.90
5429;DHT22;2737;52.386;9.980;2023-12-14T09:01:29;3.50;99.90
5429;DHT22;2737;52.386;9.980;2023-12-14T09:03:56;3.40;99.90
5429;DHT22;2737;52.386;9.980;2023-12-14T09:06:23;3.30;99.90
5429;DHT22;2737;52.386;9.980;2023-12-14T09:08:50;3.40;99.90
5429;DHT22;2737;52.386;9.980;2023-12-14T09:11:17;3.50;99.90
5429;DHT22;2737;52.386;9.980;2023-12-14T09:13:44;3.50;99.90
5429;DHT22;2737;52.386;9.980;2023-12-14T09:16:12;3.60;99.90
5429;DHT22;2737;52.386;9.980;2023-12-14T09:18:39;3.50;99.90
5429;DHT22;2737;52.386;9.980;2023-12-14T09:21:07;3.50;99.90
5429;DHT22;2737;52.386;9.980;2023-12-14T09:23:34;3.50;99.90
5429;DHT22;2737;52.386;9.980;2023-12-14T09:26:01;3.50;99.90
5429;DHT22;2737;52.386;9.980;2023-12-14T09:28:28;3.50;99.90
5429;DHT22;2737;52.386;9.980;2023-12-14T09:30:55;3.60;99.90
5429;DHT22;2737;52.386;9.980;2023-12-14T09:33:24;3.50;99.90
5429;DHT22;2737;52.386;9.980;2023-12-14T09:35:51;3.50;99.90
5429;DHT22;2737;52.386;9.980;2023-12-14T09:38:18;3.60;99.90
5429;DHT22;2737;52.386;9.980;2023-12-14T09:40:45;3.60;99.90
5429;DHT22;2737;52.386;9.980;2023-12-14T09:43:12;3.60;99.90
5429;DHT22;2737;52.386;9.980;2023-12-14T09:45:41;3.60;99.90
5429;DHT22;2737;52.386;9.980;2023-12-14T09:48:11;3.60;99.90
5429;DHT22;2737;52.386;9.980;2023-12-14T09:50:40;3.70;99.90
5429;DHT22;2737;52.386;9.980;2023-12-14T09:53:08;3.70;99.90
5429;DHT22;2737;52.386;9.980;2023-12-14T09:55:35;3.70;99.90
5429;DHT22;2737;52.386;9.980;2023-12-14T09:58:02;3.70;99.90
5429;DHT22;2737;52.386;9.980;2023-12-14T10:00:37;3.70;99.90
5429;DHT22;2737;52.386;9.980;2023-12-14T10:03:21;3.70;99.90
5429;DHT22;2737;52.386;9.980;2023-12-14T10:05:50;3.70;99.90
5429;DHT22;2737;52.386;9.980;2023-12-14T10:08:18;3.70;99.90
5429;DHT22;2737;52.386;9.980;2023-12-14T10:10:47;3.70;99.90
5429;DHT22;2737;52.386;9.980;2023-12-14T10:13:16;3.70;99.90
5429;DHT22;2737;52.386;9.980;2023-12-14T10:15:45;3.80;99.90
5429;DHT22;2737;52.386;9.980;2023-12-14T10:18:13;3.70;99.90
5429;DHT22;2737;52.386;9.980;2023-12-14T10:20:44;3.80;99.90
5429;DHT22;2737;52.386;9.980;2023-12-14T10:23:14;3.70;99.90
5429;DHT22;2737;52.386;9.980;2023-12-14T10:25:43;3.70;99.90
5429;DHT22;2737;52.386;9.980;2023-12-14T10:28:11;3.80;99.90
5429;DHT22;2737;52.386;9.980;2023-12-14T10:30:39;3.80;99.90
5429;DHT22;2737;52.386;9.980;2023-12-14T10:33:06;3.80;99.90
5429;DHT22;2737;52.386;9.980;2023-12-14T10:35:33;3.90;99.90
5429;DHT22;2737;52.386;9.980;2023-12-14T10:38:03;3.80;99.90
5429;DHT22;2737;52.386;9.980;2023-12-14T10:40:32;3.80;99.90
5429;DHT22;2737;52.386;9.980;2023-12-14T10:43:00;3.80;99.90
5429;DHT22;2737;52.386;9.980;2023-12-14T10:45:32;3.80;99.90
5429;DHT22;2737;52.386;9.980;2023-12-14T10:48:00;3.90;99.90
5429;DHT22;2737;52.386;9.980;2023-12-14T10:50:29;3.90;99.90
5429;DHT22;2737;52.386;9.980;2023-12-14T10:52:57;3.80;99.90
5429;DHT22;2737;52.386;9.980;2023-12-14T10:55:29;3.80;99.90
5429;DHT22;2737;52.386;9.980;2023-12-14T10:57:59;3.80;99.90
5429;DHT22;2737;52.386;9.980;2023-12-14T11:00:27;3.90;99.90
5429;DHT22;2737;52.386;9.980;2023-12-14T11:02:55;3.90;99.90
5429;DHT22;2737;52.386;9.980;2023-12-14T11:05:27;4.10;99.90
5429;DHT22;2737;52.386;9.980;2023-12-14T11:07:59;3.90;99.90
5429;DHT22;2737;52.386;9.980;2023-12-14T11:10:37;3.90;99.90
5429;DHT22;2737;52.386;9.980;2023-12-14T11:13:08;3.90;99.90
5429;DHT22;2737;52.386;9.980;2023-12-14T11:15:38;3.90;99.90
5429;DHT22;2737;52.386;9.980;2023-12-14T11:18:24;3.90;99.90
5429;DHT22;2737;52.386;9.980;2023-12-14T11:20:53;3.90;99.90
5429;DHT22;2737;52.386;9.980;2023-12-14T11:23:31;3.90;99.90
5429;DHT22;2737;52.386;9.980;2023-12-14T11:26:01;4.00;99.90
5429;DHT22;2737;52.386;9.980;2023-12-14T11:28:32;4.00;99.90
5429;DHT22;2737;52.386;9.980;2023-12-14T11:31:00;4.10;99.90
5429;DHT22;2737;52.386;9.980;2023-12-14T11:33:28;4.00;99.90
5429;DHT22;2737;52.386;9.980;2023-12-14T11:35:55;4.00;99.90
5429;DHT22;2737;52.386;9.980;2023-12-14T11:38:23;4.00;99.90
5429;DHT22;2737;52.386;9.980;2023-12-14T11:40:51;4.00;99.90
5429;DHT22;2737;52.386;9.980;2023-12-14T11:43:18;4.00;99.90
5429;DHT22;2737;52.386;9.980;2023-12-14T11:45:48;4.00;99.90
5429;DHT22;2737;52.386;9.980;2023-12-14T11:48:15;3.90;99.90
5429;DHT22;2737;52.386;9.980;2023-12-14T11:50:43;3.90;99.90
5429;DHT22;2737;52.386;9.980;2023-12-14T11:53:10;4.00;99.90
5429;DHT22;2737;52.386;9.980;2023-12-14T11:55:39;4.00;99.90
5429;DHT22;2737;52.386;9.980;2023-12-14T11:58:07;4.00;99.90
5429;DHT22;2737;52.386;9.980;2023-12-14T12:00:35;4.00;99.90
5429;DHT22;2737;52.386;9.980;2023-12-14T12:03:11;4.00;99.90
5429;DHT22;2737;52.386;9.980;2023-12-14T12:05:39;4.00;99.90
5429;DHT22;2737;52.386;9.980;2023-12-14T12:08:07;4.00;99.90
5429;DHT22;2737;52.386;9.980;2023-12-14T12:10:35;4.00;99.90
5429;DHT22;2737;52.386;9.980;2023-12-14T12:13:03;4.00;99.90
5429;DHT22;2737;52.386;9.980;2023-12-14T12:15:32;4.00;99.90
5429;DHT22;2737;52.386;9.980;2023-12-14T12:18:03;4.00;99.90
5429;DHT22;2737;52.386;9.980;2023-12-14T12:20:32;4.00;99.90
5429;DHT22;2737;52.386;9.980;2023-12-14T12:22:59;4.10;99.90
5429;DHT22;2737;52.386;9.980;2023-12-14T12:25:26;4.10;99.90
5429;DHT22;2737;52.386;9.980;2023-12-14T12:27:54;4.00;99.90
5429;DHT22;2737;52.386;9.980;2023-12-14T12:30:21;4.00;99.90
5429;DHT22;2737;52.386;9.980;2023-12-14T12:32:48;4.00;99.90
5429;DHT22;2737;52.386;9.980;2023-12-14T12:35:17;4.00;99.90
5429;DHT22;2737;52.386;9.980;2023-12-14T12:37:45;4.10;99.90
5429;DHT22;2737;52.386;9.980;2023-12-14T12:40:12;4.10;99.90
5429;DHT22;2737;52.386;9.980;2023-12-14T12:42:41;4.10;99.90
5429;DHT22;2737;52.386;9.980;2023-12-14T12:45:09;4.10;99.90
5429;DHT22;2737;52.386;9.980;2023-12-14T12:47:37;4.10;99.90
5429;DHT22;2737;52.386;9.980;2023-12-14T12:50:05;4.10;99.90
5429;DHT22;2737;52.386;9.980;2023-12-14T12:52:32;4.10;99.90
5429;DHT22;2737;52.386;9.980;2023-12-14T12:55:01;4.10;99.90
5429;DHT22;2737;52.386;9.980;2023-12-14T12:57:28;4.00;99.90
5429;DHT22;2737;52.386;9.980;2023-12-14T12:59:58;4.00;99.90
5429;DHT22;2737;52.386;9.980;2023-12-14T13:02:25;4.00;99.90
5429;DHT22;2737;52.386;9.980;2023-12-14T13:04:52;4.00;99.90
5429;DHT22;2737;52.386;9.980;2023-12-14T13:07:20;4.00;99.90
5429;DHT22;2737;52.386;9.980;2023-12-14T13:09:47;4.10;99.90
5429;DHT22;2737;52.386;9.980;2023-12-14T13:12:15;4.10;99.90
5429;DHT22;2737;52.386;9.980;2023-12-14T13:14:43;4.10;99.90
5429;DHT22;2737;52.386;9.980;2023-12-14T13:17:10;4.10;99.90
5429;DHT22;2737;52.386;9.980;2023-12-14T13:19:37;4.10;99.90
5429;DHT22;2737;52.386;9.980;2023-12-14T13:22:04;4.10;99.90
5429;DHT22;2737;52.386;9.980;2023-12-14T13:24:31;4.10;99.90
5429;DHT22;2737;52.386;9.980;2023-12-14T13:26:58;4.10;99.90
5429;DHT22;2737;52.386;9.980;2023-12-14T13:29:26;4.20;99.90
5429;DHT22;2737;52.386;9.980;2023-12-14T13:31:53;4.20;99.90
5429;DHT22;2737;52.386;9.980;2023-12-14T13:34:20;4.20;99.90
5429;DHT22;2737;52.386;9.980;2023-12-14T13:36:47;4.20;99.90
5429;DHT22;2737;52.386;9.980;2023-12-14T13:39:14;4.20;99.90
5429;DHT22;2737;52.386;9.980;2023-12-14T13:41:41;4.20;99.90
5429;DHT22;2737;52.386;9.980;2023-12-14T13:44:08;4.10;99.90
5429;DHT22;2737;52.386;9.980;2023-12-14T13:46:36;4.10;99.90
5429;DHT22;2737;52.386;9.980;2023-12-14T13:49:03;4.20;99.90
5429;DHT22;2737;52.386;9.980;2023-12-14T13:51:31;4.10;99.90
5429;DHT22;2737;52.386;9.980;2023-12-14T13:53:58;4.20;99.90
5429;DHT22;2737;52.386;9.980;2023-12-14T13:56:25;4.20;99.90
5429;DHT22;2737;52.386;9.980;2023-12-14T13:58:52;4.20;99.90
5429;DHT22;2737;52.386;9.980;2023-12-14T14:01:19;4.20;99.90
5429;DHT22;2737;52.386;9.980;2023-12-14T14:03:47;4.20;99.90
5429;DHT22;2737;52.386;9.980;2023-12-14T14:06:14;4.20;99.90
5429;DHT22;2737;52.386;9.980;2023-12-14T14:08:41;4.20;99.90
5429;DHT22;2737;52.386;9.980;2023-12-14T14:11:08;4.20;99.90
5429;DHT22;2737;52.386;9.980;2023-12-14T14:13:35;4.20;99.90
5429;DHT22;2737;52.386;9.980;2023-12-14T14:16:03;4.20;99.90
5429;DHT22;2737;52.386;9.980;2023-12-14T14:18:30;4.20;99.90
5429;DHT22;2737;52.386;9.980;2023-12-14T14:20:59;4.10;99.90
5429;DHT22;2737;52.386;9.980;2023-12-14T14:23:26;4.10;99.90
5429;DHT22;2737;52.386;9.980;2023-12-14T14:25:53;4.10;99.90
5429;DHT22;2737;52.386;9.980;2023-12-14T14:28:21;4.10;99.90
5429;DHT22;2737;52.386;9.980;2023-12-14T14:30:48;4.10;99.90
5429;DHT22;2737;52.386;9.980;2023-12-14T14:33:15;4.20;99.90
5429;DHT22;2737;52.386;9.980;2023-12-14T14:35:44;4.10;99.90
5429;DHT22;2737;52.386;9.980;2023-12-14T14:38:13;4.20;99.90
5429;DHT22;2737;52.386;9.980;2023-12-14T14:40:41;4.20;99.90
5429;DHT22;2737;52.386;9.980;2023-12-14T14:43:09;4.20;99.90
5429;DHT22;2737;52.386;9.980;2023-12-14T14:45:36;4.20;99.90
5429;DHT22;2737;52.386;9.980;2023-12-14T14:48:04;4.20;99.90
5429;DHT22;2737;52.386;9.980;2023-12-14T14:50:34;4.20;99.90
5429;DHT22;2737;52.386;9.980;2023-12-14T14:53:01;4.20;99.90
5429;DHT22;2737;52.386;9.980;2023-12-14T14:55:30;4.20;99.90
5429;DHT22;2737;52.386;9.980;2023-12-14T14:57:58;4.20;99.90
5429;DHT22;2737;52.386;9.980;2023-12-14T15:00:26;4.20;99.90
5429;DHT22;2737;52.386;9.980;2023-12-14T15:02:53;4.20;99.90
5429;DHT22;2737;52.386;9.980;2023-12-14T15:05:20;4.20;99.90
5429;DHT22;2737;52.386;9.980;2023-12-14T15:07:46;4.20;99.90
5429;DHT22;2737;52.386;9.980;2023-12-14T15:10:14;4.20;99.90
5429;DHT22;2737;52.386;9.980;2023-12-14T15:12:42;4.20;99.90
5429;DHT22;2737;52.386;9.980;2023-12-14T15:15:09;4.20;99.90
5429;DHT22;2737;52.386;9.980;2023-12-14T15:17:37;4.30;99.90
5429;DHT22;2737;52.386;9.980;2023-12-14T15:20:04;4.20;99.90
5429;DHT22;2737;52.386;9.980;2023-12-14T15:22:32;4.20;99.90
5429;DHT22;2737;52.386;9.980;2023-12-14T15:24:58;4.20;99.90
5429;DHT22;2737;52.386;9.980;2023-12-14T15:27:26;4.20;99.90
5429;DHT22;2737;52.386;9.980;2023-12-14T15:29:55;4.20;99.90
5429;DHT22;2737;52.386;9.980;2023-12-14T15:32:22;4.20;99.90
5429;DHT22;2737;52.386;9.980;2023-12-14T15:34:49;4.20;99.90
5429;DHT22;2737;52.386;9.980;2023-12-14T15:37:16;4.10;99.90
5429;DHT22;2737;52.386;9.980;2023-12-14T15:39:43;4.10;99.90
5429;DHT22;2737;52.386;9.980;2023-12-14T15:42:14;4.10;99.90
5429;DHT22;2737;52.386;9.980;2023-12-14T15:44:41;4.10;99.90
5429;DHT22;2737;52.386;9.980;2023-12-14T15:47:11;4.10;99.90
5429;DHT22;2737;52.386;9.980;2023-12-14T15:49:38;4.10;99.90
5429;DHT22;2737;52.386;9.980;2023-12-14T15:52:05;4.10;99.90
5429;DHT22;2737;52.386;9.980;2023-12-14T15:54:32;4.10;99.90
5429;DHT22;2737;52.386;9.980;2023-12-14T15:56:59;4.10;99.90
5429;DHT22;2737;52.386;9.980;2023-12-14T15:59:26;4.10;99.90
5429;DHT22;2737;52.386;9.980;2023-12-14T16:01:53;4.10;99.90
5429;DHT22;2737;52.386;9.980;2023-12-14T16:04:22;4.20;99.90
5429;DHT22;2737;52.386;9.980;2023-12-14T16:06:49;4.10;99.90
5429;DHT22;2737;52.386;9.980;2023-12-14T16:09:16;4.10;99.90
5429;DHT22;2737;52.386;9.980;2023-12-14T16:11:43;4.10;99.90
5429;DHT22;2737;52.386;9.980;2023-12-14T16:14:10;4.10;99.90
5429;DHT22;2737;52.386;9.980;2023-12-14T16:16:37;4.10;99.90
5429;DHT22;2737;52.386;9.980;2023-12-14T16:19:04;4.10;99.90